Time;durP1;ratioP1;P1;durP2;ratioP2;P2;SDS_P1;SDS_P2;PMS_P1;PMS_P2;Temp;Humidity;BMP_temperature;BMP_pressure;BME280_temperature;BME280_humidity;BME280_pressure;Samples;Min_cycle;Max_cycle;Signal;HPM_P1;HPM_P2
2023/04/05 00:01:25;;;;;;;12.30;7.07;;;1.30;99.90;;;;;;4977921;28;20045;-85
2023/04/05 00:03:53;;;;;;;10.90;7.40;;;1.30;99.90;;;;;;4999975;28;20042;-86
2023/04/05 00:06:21;;;;;;;11.40;6.97;;;1.30;99.90;;;;;;4999911;28;20122;-86
2023/04/05 00:08:48;;;;;;;12.40;6.83;;;1.30;99.90;;;;;;4990557;28;20398;-86
2023/04/05 00:11:15;;;;;;;11.60;7.70;;;1.30;99.90;;;;;;4984115;28;20038;-85
2023/04/05 00:13:41;;;;;;;11.10;6.63;;;1.20;99.90;;;;;;4997349;28;20042;-86
2023/04/05 00:16:08;;;;;;;12.63;7.60;;;1.20;99.90;;;;;;4983226;28;20033;-86
2023/04/05 00:18:33;;;;;;;14.27;7.60;;;1.20;99.90;;;;;;4993183;28;20038;-86
2023/04/05 00:20:59;;;;;;;10.30;6.97;;;1.20;99.90;;;;;;5005000;28;20045;-86
2023/04/05 00:23:25;;;;;;;9.43;6.67;;;1.10;99.90;;;;;;4999658;28;20049;-86
2023/04/05 00:25:51;;;;;;;11.93;7.50;;;1.10;99.90;;;;;;4999510;28;20041;-86
2023/04/05 00:28:17;;;;;;;11.80;6.80;;;1.10;99.90;;;;;;4966010;28;20437;-86
2023/04/05 00:30:43;;;;;;;13.10;7.93;;;1.00;99.90;;;;;;4988455;28;20048;-86
2023/04/05 00:33:10;;;;;;;13.10;7.77;;;0.90;99.90;;;;;;4981245;28;20115;-86
2023/04/05 00:35:36;;;;;;;13.37;7.80;;;0.90;99.90;;;;;;4988571;28;20065;-86
2023/04/05 00:38:02;;;;;;;13.13;7.10;;;0.90;99.90;;;;;;5008268;28;20116;-86
2023/04/05 00:40:27;;;;;;;12.03;7.20;;;0.80;99.90;;;;;;4982445;28;20045;-85
2023/04/05 00:42:53;;;;;;;12.67;8.30;;;0.80;99.90;;;;;;4993246;28;20132;-86
2023/04/05 00:45:19;;;;;;;14.00;7.57;;;0.70;99.90;;;;;;4995781;28;20041;-85
2023/04/05 00:47:44;;;;;;;12.63;7.63;;;0.80;99.90;;;;;;4998261;28;20140;-86
2023/04/05 00:50:12;;;;;;;15.73;7.93;;;0.70;99.90;;;;;;5002890;28;20493;-85
2023/04/05 00:52:39;;;;;;;12.87;8.67;;;0.80;99.90;;;;;;5005652;28;20490;-85
2023/04/05 00:55:06;;;;;;;13.93;7.50;;;0.70;99.90;;;;;;4983088;28;20417;-85
2023/04/05 00:57:34;;;;;;;16.43;8.00;;;0.70;99.90;;;;;;4995652;28;20041;-84
2023/04/05 01:00:06;;;;;;;11.67;7.67;;;0.70;99.90;;;;;;4977085;28;20103;-86
2023/04/05 01:02:38;;;;;;;11.50;7.75;;;0.70;99.90;;;;;;4983272;28;20041;-85
2023/04/05 01:05:23;;;;;;;14.23;8.38;;;0.60;99.90;;;;;;5014599;28;20033;-85
2023/04/05 01:07:57;;;;;;;12.90;8.40;;;0.50;99.90;;;;;;4997706;28;20029;-86
2023/04/05 01:10:30;;;;;;;12.83;8.23;;;0.50;99.90;;;;;;5004500;28;20048;-85
2023/04/05 01:12:55;;;;;;;13.53;8.30;;;0.50;99.90;;;;;;5014766;28;20087;-85
2023/04/05 01:15:21;;;;;;;12.53;8.17;;;0.50;99.90;;;;;;4995689;28;20041;-85
2023/04/05 01:17:47;;;;;;;10.27;7.47;;;0.50;99.90;;;;;;5014604;28;20125;-85
2023/04/05 01:20:14;;;;;;;16.07;8.40;;;0.50;99.90;;;;;;4982458;28;20045;-85
2023/04/05 01:22:45;;;;;;;16.03;8.27;;;0.50;99.90;;;;;;4990740;28;20045;-85
2023/04/05 01:25:35;;;;;;;10.93;7.10;;;0.50;99.90;;;;;;4983890;28;20668;-85
2023/04/05 01:28:26;;;;;;;14.00;8.20;;;0.50;99.90;;;;;;4993176;28;20044;-85
2023/04/05 01:31:06;;;;;;;13.90;8.03;;;0.50;99.90;;;;;;4984526;28;20120;-85
2023/04/05 01:33:56;;;;;;;12.37;8.47;;;0.40;99.90;;;;;;4992870;28;20106;-85
2023/04/05 01:36:39;;;;;;;12.57;8.17;;;0.40;99.90;;;;;;4995787;28;20037;-85
2023/04/05 01:39:08;;;;;;;14.87;8.60;;;0.40;99.90;;;;;;5008878;28;20041;-85
2023/04/05 01:41:33;;;;;;;13.63;7.87;;;0.40;99.90;;;;;;4998485;28;20069;-85
2023/04/05 01:43:59;;;;;;;14.97;8.47;;;0.40;99.90;;;;;;4969454;28;20080;-85
2023/04/05 01:46:25;;;;;;;13.83;8.37;;;0.30;99.90;;;;;;4970744;28;20037;-85
2023/04/05 01:48:51;;;;;;;12.30;8.07;;;0.30;99.90;;;;;;4965177;28;20072;-85
2023/04/05 01:51:17;;;;;;;14.60;9.03;;;0.30;99.90;;;;;;4975544;28;20409;-85
2023/04/05 01:53:42;;;;;;;13.10;7.73;;;0.20;99.90;;;;;;4987155;28;20053;-85
2023/04/05 01:56:08;;;;;;;15.20;8.40;;;0.30;99.90;;;;;;4977921;28;20045;-85
2023/04/05 01:58:33;;;;;;;14.90;8.60;;;0.30;99.90;;;;;;4981596;28;20132;-85
2023/04/05 02:00:59;;;;;;;13.77;8.40;;;0.30;99.90;;;;;;4981422;28;20409;-84
2023/04/05 02:03:25;;;;;;;15.50;8.67;;;0.30;99.90;;;;;;4981782;28;20047;-85
2023/04/05 02:05:51;;;;;;;12.50;8.17;;;0.20;99.90;;;;;;4995535;28;20051;-85
2023/04/05 02:08:17;;;;;;;17.83;9.17;;;0.20;99.90;;;;;;4997054;28;20046;-85
2023/04/05 02:10:43;;;;;;;14.70;8.43;;;0.20;99.90;;;;;;5013988;28;20069;-85
2023/04/05 02:13:09;;;;;;;13.80;8.70;;;0.10;99.90;;;;;;4981311;28;20037;-85
2023/04/05 02:15:35;;;;;;;13.80;9.03;;;0.10;99.90;;;;;;5002010;28;20041;-84
2023/04/05 02:18:01;;;;;;;14.53;8.37;;;0.10;99.90;;;;;;5022236;28;20092;-85
2023/04/05 02:20:27;;;;;;;12.37;8.40;;;0.20;99.90;;;;;;4974134;28;20452;-85
2023/04/05 02:22:54;;;;;;;15.87;8.97;;;0.20;99.90;;;;;;4995111;28;20412;-84
2023/04/05 02:25:20;;;;;;;15.60;9.63;;;0.20;99.90;;;;;;5000470;28;20053;-84
2023/04/05 02:27:46;;;;;;;15.87;8.97;;;0.10;99.90;;;;;;5005669;28;20042;-84
2023/04/05 02:30:14;;;;;;;13.47;9.07;;;0.10;99.90;;;;;;4986939;28;20067;-85
2023/04/05 02:32:41;;;;;;;17.10;9.63;;;0.10;99.90;;;;;;4976067;28;20038;-85
2023/04/05 02:35:08;;;;;;;14.70;9.20;;;0.10;99.90;;;;;;4980061;28;20045;-85
2023/04/05 02:37:34;;;;;;;12.63;8.70;;;0.10;99.90;;;;;;4995256;28;20037;-85
2023/04/05 02:40:00;;;;;;;16.10;9.57;;;0.00;99.90;;;;;;4997199;28;20095;-85
2023/04/05 02:42:26;;;;;;;12.67;9.07;;;0.00;99.90;;;;;;5013413;28;20045;-85
2023/04/05 02:44:52;;;;;;;17.83;9.47;;;0.00;99.90;;;;;;5013501;28;20052;-85
2023/04/05 02:47:21;;;;;;;18.67;9.87;;;0.00;99.90;;;;;;4988733;28;20064;-85
2023/04/05 02:49:50;;;;;;;14.17;9.27;;;0.00;99.90;;;;;;4999132;28;20045;-85
2023/04/05 02:52:16;;;;;;;14.67;10.00;;;0.00;99.90;;;;;;5006179;28;20034;-85
2023/04/05 02:54:42;;;;;;;15.40;9.63;;;0.00;99.90;;;;;;4988682;28;20030;-85
2023/04/05 02:57:10;;;;;;;16.50;10.53;;;0.00;99.90;;;;;;4997244;28;20045;-85
2023/04/05 02:59:39;;;;;;;16.60;10.77;;;0.00;99.90;;;;;;5006831;28;20037;-85
2023/04/05 03:02:05;;;;;;;17.17;10.63;;;0.00;99.90;;;;;;4994355;28;20375;-85
2023/04/05 03:04:33;;;;;;;17.40;10.50;;;0.00;99.90;;;;;;4991905;28;20038;-85
2023/04/05 03:07:03;;;;;;;15.30;10.47;;;0.00;99.90;;;;;;4996190;28;20045;-85
2023/04/05 03:09:32;;;;;;;16.00;10.03;;;0.00;99.90;;;;;;4997354;28;20037;-85
2023/04/05 03:12:04;;;;;;;14.87;9.97;;;0.00;99.90;;;;;;5000743;28;20048;-85
2023/04/05 03:14:30;;;;;;;15.45;9.43;;;0.00;99.90;;;;;;4982241;28;20041;-85
2023/04/05 03:16:57;;;;;;;19.73;10.33;;;0.00;99.90;;;;;;5017605;28;20377;-85
2023/04/05 03:19:24;;;;;;;15.60;10.10;;;-0.10;99.90;;;;;;5016877;28;20492;-85
2023/04/05 03:21:51;;;;;;;16.03;9.57;;;-0.10;99.90;;;;;;5012667;28;20064;-85
2023/04/05 03:24:17;;;;;;;16.03;10.47;;;-0.10;99.90;;;;;;5015642;28;20045;-85
2023/04/05 03:26:44;;;;;;;17.07;10.63;;;-0.10;99.90;;;;;;4984359;28;20570;-85
2023/04/05 03:29:10;;;;;;;16.60;10.37;;;-0.20;99.90;;;;;;5008836;28;20058;-85
2023/04/05 03:31:36;;;;;;;15.60;10.70;;;-0.20;99.90;;;;;;4982653;28;20045;-85
2023/04/05 03:34:02;;;;;;;18.23;11.40;;;-0.20;99.90;;;;;;4996928;28;20037;-85
2023/04/05 03:36:29;;;;;;;16.43;10.80;;;-0.20;99.90;;;;;;5016272;28;20505;-85
2023/04/05 03:38:55;;;;;;;17.10;11.60;;;-0.30;99.90;;;;;;4999522;28;20055;-85
2023/04/05 03:41:21;;;;;;;17.30;10.30;;;-0.30;99.90;;;;;;4994607;28;20662;-84
2023/04/05 03:43:48;;;;;;;16.10;10.90;;;-0.30;99.90;;;;;;4986869;28;20096;-85
2023/04/05 03:46:14;;;;;;;20.67;12.43;;;-0.30;99.90;;;;;;5004843;28;20397;-85
2023/04/05 03:48:39;;;;;;;17.90;11.03;;;-0.30;99.90;;;;;;4986092;28;20049;-85
2023/04/05 03:51:06;;;;;;;17.90;10.67;;;-0.30;99.90;;;;;;4993761;28;20044;-85
2023/04/05 03:53:32;;;;;;;17.47;11.90;;;-0.40;99.90;;;;;;4995434;28;20041;-85
2023/04/05 03:55:58;;;;;;;17.70;11.60;;;-0.40;99.90;;;;;;5011118;28;20358;-85
2023/04/05 03:58:27;;;;;;;18.17;11.80;;;-0.40;99.90;;;;;;4983520;28;20544;-85
2023/04/05 04:00:54;;;;;;;21.17;12.30;;;-0.40;99.90;;;;;;4988501;28;20096;-85
2023/04/05 04:03:20;;;;;;;19.93;12.43;;;-0.40;99.90;;;;;;5008697;28;20085;-85
2023/04/05 04:05:46;;;;;;;19.03;12.43;;;-0.50;99.90;;;;;;4996654;28;20092;-85
2023/04/05 04:08:12;;;;;;;18.07;11.40;;;-0.50;99.90;;;;;;4999864;28;20060;-85
2023/04/05 04:10:38;;;;;;;18.17;12.30;;;-0.50;99.90;;;;;;4983379;28;20040;-85
2023/04/05 04:13:03;;;;;;;17.07;12.03;;;-0.50;99.90;;;;;;5015377;28;20099;-84
2023/04/05 04:15:30;;;;;;;20.47;13.20;;;-0.50;99.90;;;;;;5012048;28;20041;-85
2023/04/05 04:17:55;;;;;;;17.43;11.60;;;-0.50;99.90;;;;;;4992781;28;20046;-84
2023/04/05 04:20:21;;;;;;;21.43;13.43;;;-0.50;99.90;;;;;;4993077;28;20045;-85
2023/04/05 04:22:48;;;;;;;21.10;13.13;;;-0.50;99.90;;;;;;5000137;28;20131;-84
2023/04/05 04:25:17;;;;;;;22.60;13.00;;;-0.50;99.90;;;;;;5000547;28;20050;-85
2023/04/05 04:27:43;;;;;;;20.80;13.67;;;-0.50;99.90;;;;;;5012547;28;20052;-85
2023/04/05 04:30:11;;;;;;;22.77;13.90;;;-0.50;99.90;;;;;;5009299;28;20288;-85
2023/04/05 04:32:58;;;;;;;21.20;13.57;;;-0.50;99.90;;;;;;4993369;28;20397;-85
2023/04/05 04:35:26;;;;;;;20.67;13.77;;;-0.60;99.90;;;;;;4987077;28;20303;-85
2023/04/05 04:38:03;;;;;;;20.30;13.70;;;-0.60;99.90;;;;;;5009582;28;20285;-85
2023/04/05 04:40:38;;;;;;;21.50;14.47;;;-0.60;99.90;;;;;;5003715;28;20291;-85
2023/04/05 04:43:17;;;;;;;19.33;12.13;;;-0.60;99.90;;;;;;5014649;28;20631;-85
2023/04/05 04:45:47;;;;;;;22.67;13.20;;;-0.60;99.90;;;;;;5013155;28;20291;-85
2023/04/05 04:48:17;;;;;;;20.53;13.80;;;-0.60;99.90;;;;;;4998813;28;20395;-85
2023/04/05 04:50:44;;;;;;;19.67;13.40;;;-0.60;99.90;;;;;;4992999;28;20811;-84
2023/04/05 04:53:10;;;;;;;20.40;13.37;;;-0.60;99.90;;;;;;5001440;28;20292;-84
2023/04/05 04:55:37;;;;;;;22.33;13.93;;;-0.60;99.90;;;;;;5008838;28;20291;-84
2023/04/05 04:58:09;;;;;;;21.93;14.90;;;-0.60;99.90;;;;;;4983595;28;20289;-85
2023/04/05 05:00:37;;;;;;;21.75;13.27;;;-0.60;99.90;;;;;;4997738;28;20288;-85
2023/04/05 05:03:03;;;;;;;20.63;13.63;;;-0.60;99.90;;;;;;5009200;28;20038;-84
2023/04/05 05:05:28;;;;;;;23.87;15.20;;;-0.60;99.90;;;;;;4995649;28;20296;-84
2023/04/05 05:07:54;;;;;;;27.53;15.10;;;-0.60;99.90;;;;;;5001447;28;20505;-85
2023/04/05 05:10:20;;;;;;;21.67;14.87;;;-0.60;99.90;;;;;;4987172;28;20041;-85
2023/04/05 05:12:47;;;;;;;21.90;14.50;;;-0.50;99.90;;;;;;5005280;28;20440;-85
2023/04/05 05:15:13;;;;;;;21.23;14.77;;;-0.50;99.90;;;;;;4991911;28;20046;-85
2023/04/05 05:17:39;;;;;;;23.87;13.87;;;-0.50;99.90;;;;;;5013861;28;20042;-85
2023/04/05 05:20:09;;;;;;;23.87;14.80;;;-0.50;99.90;;;;;;5014355;28;20120;-85
2023/04/05 05:22:36;;;;;;;24.97;15.00;;;-0.40;99.90;;;;;;5006986;28;20788;-85
2023/04/05 05:25:02;;;;;;;23.83;14.67;;;-0.50;99.90;;;;;;4995411;28;20049;-85
2023/04/05 05:27:28;;;;;;;23.87;14.80;;;-0.40;99.90;;;;;;5003435;28;20046;-85
2023/04/05 05:29:54;;;;;;;23.20;14.73;;;-0.40;99.90;;;;;;4973601;28;20280;-85
2023/04/05 05:32:21;;;;;;;21.83;14.00;;;-0.40;99.90;;;;;;5010150;28;20045;-85
2023/04/05 05:34:47;;;;;;;23.00;15.13;;;-0.40;99.90;;;;;;4986585;28;20425;-85
2023/04/05 05:37:13;;;;;;;24.10;15.93;;;-0.30;99.90;;;;;;5004836;28;20041;-85
2023/04/05 05:39:39;;;;;;;21.97;15.03;;;-0.30;99.90;;;;;;4987642;28;20397;-85
2023/04/05 05:42:05;;;;;;;24.43;14.87;;;-0.30;99.90;;;;;;4991863;28;20037;-85
2023/04/05 05:44:31;;;;;;;22.87;16.20;;;-0.20;99.90;;;;;;4988518;28;20033;-85
2023/04/05 05:46:57;;;;;;;26.37;16.67;;;-0.10;99.90;;;;;;5002054;28;20652;-85
2023/04/05 05:49:23;;;;;;;21.87;15.00;;;-0.10;99.90;;;;;;5008884;28;20110;-85
2023/04/05 05:51:51;;;;;;;25.37;16.17;;;0.00;99.90;;;;;;5007327;28;20036;-86
2023/04/05 05:54:17;;;;;;;24.13;16.83;;;0.10;99.90;;;;;;4993763;28;20048;-84
2023/04/05 05:56:43;;;;;;;21.80;16.43;;;0.10;99.90;;;;;;5012269;28;20566;-84
2023/04/05 05:59:09;;;;;;;27.30;16.33;;;0.20;99.90;;;;;;4987354;28;20034;-85
2023/04/05 06:01:41;;;;;;;26.17;17.63;;;0.30;99.90;;;;;;5014269;28;20041;-86
2023/04/05 06:04:07;;;;;;;20.90;15.77;;;0.30;99.90;;;;;;4981529;28;20042;-86
2023/04/05 06:06:34;;;;;;;22.13;16.50;;;0.40;99.90;;;;;;4998128;28;20120;-86
2023/04/05 06:08:59;;;;;;;22.50;16.27;;;0.40;99.90;;;;;;4994215;28;20044;-86
2023/04/05 06:11:25;;;;;;;23.33;16.63;;;0.50;99.90;;;;;;5014157;28;20049;-85
2023/04/05 06:13:53;;;;;;;24.30;17.30;;;0.50;99.90;;;;;;4982041;28;20120;-86
2023/04/05 06:16:23;;;;;;;24.80;16.60;;;0.60;99.90;;;;;;5013675;28;20037;-85
2023/04/05 06:18:48;;;;;;;22.30;16.90;;;0.70;99.90;;;;;;4979284;28;20133;-85
2023/04/05 06:21:14;;;;;;;20.87;16.40;;;0.80;99.90;;;;;;5012556;28;20124;-86
2023/04/05 06:23:43;;;;;;;24.30;17.47;;;0.90;99.90;;;;;;4976068;28;20045;-86
2023/04/05 06:26:19;;;;;;;22.77;17.10;;;0.90;99.90;;;;;;4982363;28;20045;-86
2023/04/05 06:28:48;;;;;;;24.43;17.53;;;1.00;99.90;;;;;;5005791;28;20401;-87
2023/04/05 06:31:15;;;;;;;26.33;17.50;;;1.00;99.90;;;;;;4961402;28;20052;-87
2023/04/05 06:33:41;;;;;;;23.63;17.27;;;1.10;99.90;;;;;;5009186;28;20069;-87
2023/04/05 06:36:07;;;;;;;26.30;17.73;;;1.20;99.90;;;;;;4991318;28;20065;-87
2023/04/05 06:38:33;;;;;;;24.60;17.27;;;1.20;99.90;;;;;;4984731;28;20080;-87
2023/04/05 06:40:59;;;;;;;24.80;16.90;;;1.20;99.90;;;;;;5012542;28;20072;-86
2023/04/05 06:43:25;;;;;;;26.23;17.50;;;1.30;99.90;;;;;;4993045;28;20385;-87
2023/04/05 06:45:50;;;;;;;24.70;18.20;;;1.40;99.90;;;;;;4985515;28;20103;-86
2023/04/05 06:48:16;;;;;;;24.53;17.53;;;1.50;99.90;;;;;;4984820;28;20401;-87
2023/04/05 06:50:42;;;;;;;25.00;16.90;;;1.60;99.90;;;;;;4985260;28;20115;-86
2023/04/05 06:53:07;;;;;;;24.20;17.60;;;1.70;99.90;;;;;;5001349;28;20080;-87
2023/04/05 06:55:34;;;;;;;24.50;17.80;;;1.80;99.90;;;;;;4983497;28;20034;-87
2023/04/05 06:57:59;;;;;;;24.43;16.70;;;1.80;99.90;;;;;;5009346;28;20460;-86
2023/04/05 07:00:25;;;;;;;22.13;17.17;;;1.90;99.90;;;;;;4966451;28;20502;-87
2023/04/05 07:02:51;;;;;;;22.93;17.00;;;2.00;99.90;;;;;;4971158;28;20037;-87
2023/04/05 07:05:16;;;;;;;23.23;18.03;;;2.00;99.90;;;;;;5011406;28;20073;-87
2023/04/05 07:07:44;;;;;;;21.57;17.40;;;2.10;99.90;;;;;;4994083;28;20038;-86
2023/04/05 07:10:10;;;;;;;26.00;17.40;;;2.20;99.90;;;;;;4988272;28;20498;-86
2023/04/05 07:12:36;;;;;;;21.03;16.70;;;2.40;99.90;;;;;;5009134;28;20045;-85
2023/04/05 07:15:02;;;;;;;22.27;16.97;;;2.50;99.90;;;;;;4981826;28;20069;-86
2023/04/05 07:17:28;;;;;;;20.80;15.80;;;2.60;99.90;;;;;;4966557;28;20400;-85
2023/04/05 07:19:54;;;;;;;21.80;16.70;;;2.60;99.90;;;;;;5000570;28;20053;-86
2023/04/05 07:22:20;;;;;;;24.67;16.23;;;2.70;99.90;;;;;;5007979;28;20191;-87
2023/04/05 07:24:45;;;;;;;22.00;15.93;;;2.80;99.90;;;;;;4997270;28;20405;-88
2023/04/05 07:27:12;;;;;;;20.80;15.73;;;2.90;99.90;;;;;;4971278;28;20046;-87
2023/04/05 07:29:39;;;;;;;19.70;15.20;;;3.00;99.90;;;;;;4998126;28;20434;-88
2023/04/05 07:32:06;;;;;;;20.40;16.17;;;3.10;99.90;;;;;;4981437;28;20033;-87
2023/04/05 07:34:33;;;;;;;19.77;15.63;;;3.10;99.90;;;;;;4981273;28;20442;-87
2023/04/05 07:36:59;;;;;;;26.23;16.00;;;3.20;99.90;;;;;;4986647;28;20394;-85
2023/04/05 07:39:25;;;;;;;17.00;14.27;;;3.30;99.90;;;;;;4991915;28;20056;-87
2023/04/05 07:41:51;;;;;;;19.73;15.20;;;3.40;99.90;;;;;;4981385;28;20084;-87
2023/04/05 07:44:17;;;;;;;19.93;15.47;;;3.50;99.90;;;;;;4971283;28;20073;-88
2023/04/05 07:46:43;;;;;;;23.73;15.57;;;3.60;99.90;;;;;;4980930;28;20034;-87
2023/04/05 07:49:10;;;;;;;21.47;15.23;;;3.70;99.90;;;;;;4988090;28;20046;-88
2023/04/05 07:51:37;;;;;;;19.47;15.60;;;3.90;99.90;;;;;;5000251;28;20044;-88
2023/04/05 07:54:06;;;;;;;23.53;15.17;;;4.00;99.90;;;;;;4968668;28;20049;-88
2023/04/05 07:56:32;;;;;;;20.47;15.30;;;4.10;99.90;;;;;;4999848;28;20046;-87
2023/04/05 07:58:58;;;;;;;18.27;14.20;;;4.20;99.90;;;;;;5004679;28;20044;-88
2023/04/05 08:01:26;;;;;;;19.37;14.30;;;4.30;99.90;;;;;;5000320;28;20060;-87
2023/04/05 08:03:54;;;;;;;17.73;13.63;;;4.40;99.90;;;;;;4983289;28;20378;-87
2023/04/05 08:06:20;;;;;;;18.73;14.27;;;4.60;99.90;;;;;;4998467;28;20531;-88
2023/04/05 08:08:46;;;;;;;19.83;13.33;;;4.70;99.90;;;;;;4996410;28;20049;-87
2023/04/05 08:11:11;;;;;;;17.73;13.60;;;4.90;99.90;;;;;;5000941;28;20485;-88
2023/04/05 08:13:40;;;;;;;17.97;12.97;;;5.00;99.90;;;;;;4999508;28;20045;-87
2023/04/05 08:16:07;;;;;;;15.63;11.33;;;5.20;99.90;;;;;;4990413;28;20069;-87
2023/04/05 08:18:33;;;;;;;16.13;12.13;;;5.40;99.90;;;;;;4992639;28;20124;-87
2023/04/05 08:20:59;;;;;;;14.63;12.47;;;5.50;99.90;;;;;;5003111;28;20125;-87
2023/04/05 08:23:26;;;;;;;16.67;12.53;;;5.60;99.90;;;;;;4997475;28;20041;-87
2023/04/05 08:25:52;;;;;;;17.50;11.87;;;5.80;99.90;;;;;;4983876;28;20033;-87
2023/04/05 08:28:17;;;;;;;18.07;11.23;;;5.90;99.90;;;;;;4997190;28;20053;-88
2023/04/05 08:30:44;;;;;;;13.27;10.20;;;6.00;99.90;;;;;;4982241;28;20106;-87
2023/04/05 08:33:10;;;;;;;12.30;10.47;;;6.10;99.90;;;;;;5016104;28;20120;-87
2023/04/05 08:35:36;;;;;;;12.93;9.30;;;6.30;99.90;;;;;;4993495;28;20120;-87
2023/04/05 08:38:03;;;;;;;14.53;11.07;;;6.50;99.90;;;;;;4999213;28;20045;-87
2023/04/05 08:40:45;;;;;;;12.07;9.53;;;6.60;99.90;;;;;;4999385;28;20045;-88
2023/04/05 08:43:17;;;;;;;11.90;9.03;;;6.80;99.90;;;;;;4996579;28;20050;-86
2023/04/05 08:45:48;;;;;;;13.52;9.85;;;6.90;99.90;;;;;;4988405;28;20048;-87
2023/04/05 08:48:14;;;;;;;11.83;8.53;;;7.00;99.90;;;;;;5015397;28;20107;-87
2023/04/05 08:50:40;;;;;;;12.87;8.83;;;7.10;99.90;;;;;;4983629;28;20132;-88
2023/04/05 08:53:09;;;;;;;12.23;8.97;;;7.20;99.90;;;;;;4989575;28;20145;-88
2023/04/05 08:55:38;;;;;;;13.03;8.50;;;7.30;99.90;;;;;;4998919;28;20041;-88
2023/04/05 08:58:12;;;;;;;14.00;8.97;;;7.40;99.90;;;;;;4993307;28;20477;-88
2023/04/05 09:00:38;;;;;;;11.37;8.77;;;7.60;99.90;;;;;;4995468;28;20077;-89
2023/04/05 09:03:05;;;;;;;11.50;7.33;;;7.70;99.90;;;;;;4979716;28;20052;-88
2023/04/05 09:05:31;;;;;;;7.90;5.57;;;7.80;99.90;;;;;;4996573;28;20034;-87
2023/04/05 09:07:58;;;;;;;8.73;6.83;;;7.90;99.90;;;;;;5007054;28;20072;-87
2023/04/05 09:10:25;;;;;;;7.53;6.13;;;8.00;99.90;;;;;;4999199;28;20485;-87
2023/04/05 09:12:52;;;;;;;6.23;4.53;;;8.20;99.90;;;;;;4983372;28;20424;-87
2023/04/05 09:15:20;;;;;;;5.77;4.70;;;8.30;99.90;;;;;;4972230;28;20117;-87
2023/04/05 09:17:46;;;;;;;8.30;6.00;;;8.40;99.90;;;;;;4987940;28;20045;-88
2023/04/05 09:20:12;;;;;;;6.20;4.93;;;8.50;99.90;;;;;;5004944;28;20056;-88
2023/04/05 09:22:44;;;;;;;6.17;5.37;;;8.60;99.90;;;;;;5005947;28;20045;-89
2023/04/05 09:25:10;;;;;;;7.07;4.65;;;8.70;99.90;;;;;;5001372;28;20056;-86
2023/04/05 09:27:54;;;;;;;8.03;4.90;;;8.70;99.90;;;;;;4968494;28;20593;-86
2023/04/05 09:30:21;;;;;;;7.73;4.23;;;8.70;88.30;;;;;;4973832;28;20038;-87
2023/04/05 09:32:49;;;;;;;5.83;4.10;;;8.80;99.90;;;;;;4982709;28;20042;-87
2023/04/05 09:35:20;;;;;;;7.37;5.07;;;8.90;99.90;;;;;;5004317;28;20733;-87
2023/04/05 09:37:56;;;;;;;8.07;5.00;;;9.00;99.90;;;;;;5001175;28;20117;-87
2023/04/05 09:40:23;;;;;;;6.33;4.03;;;9.10;99.90;;;;;;4995791;28;20096;-85
2023/04/05 09:42:50;;;;;;;9.50;5.10;;;9.10;99.90;;;;;;4983339;28;20409;-87
2023/04/05 09:45:17;;;;;;;8.43;5.03;;;9.20;99.90;;;;;;4965841;28;20049;-87
2023/04/05 09:47:56;;;;;;;6.17;3.60;;;9.20;99.90;;;;;;4999134;28;20042;-87
2023/04/05 09:50:23;;;;;;;6.83;4.50;;;9.20;90.50;;;;;;4999920;28;20459;-86
2023/04/05 09:52:51;;;;;;;7.20;4.97;;;9.30;92.60;;;;;;4969919;28;20077;-87
2023/04/05 09:55:27;;;;;;;8.63;4.63;;;9.40;95.30;;;;;;4980889;28;20111;-87
2023/04/05 09:57:53;;;;;;;7.63;4.73;;;9.40;90.90;;;;;;4973583;28;20386;-88
2023/04/05 10:00:21;;;;;;;6.73;5.63;;;9.50;91.80;;;;;;4996779;28;20041;-87
2023/04/05 10:02:52;;;;;;;8.27;3.87;;;9.50;93.00;;;;;;4998408;28;20045;-87
2023/04/05 10:05:17;;;;;;;6.37;3.90;;;9.60;87.10;;;;;;5005728;28;20619;-87
2023/04/05 10:07:44;;;;;;;6.27;4.30;;;9.60;88.00;;;;;;4981607;28;20101;-87
2023/04/05 10:10:12;;;;;;;7.73;5.43;;;9.70;85.60;;;;;;4965148;28;20099;-87
2023/04/05 10:12:40;;;;;;;10.83;5.03;;;9.60;85.10;;;;;;4996524;28;20436;-87
2023/04/05 10:15:10;;;;;;;8.33;5.43;;;9.50;83.10;;;;;;4981021;28;20034;-88
2023/04/05 10:17:52;;;;;;;7.40;5.20;;;9.20;82.70;;;;;;5010397;28;20049;-87
2023/04/05 10:20:18;;;;;;;;;;;9.30;89.30;;;;;;4994747;28;20136;-87
2023/04/05 10:23:02;;;;;;;8.47;5.87;;;9.10;82.30;;;;;;5018438;28;20003;-88
2023/04/05 10:25:50;;;;;;;6.97;5.03;;;9.00;82.60;;;;;;4999251;28;20041;-88
2023/04/05 10:28:22;;;;;;;5.37;4.87;;;9.00;89.90;;;;;;5001348;28;20099;-87
2023/04/05 10:30:51;;;;;;;7.97;5.60;;;8.90;90.00;;;;;;5014956;28;20485;-87
2023/04/05 10:33:28;;;;;;;7.23;5.40;;;8.90;88.50;;;;;;4997832;28;20068;-89
2023/04/05 10:36:30;;;;;;;8.07;5.40;;;9.00;88.90;;;;;;5001162;28;20045;-86
2023/04/05 10:39:07;;;;;;;9.13;6.15;;;9.20;84.60;;;;;;4998413;28;20099;-87
2023/04/05 10:41:41;;;;;;;8.50;4.97;;;9.40;82.40;;;;;;5007545;28;20046;-86
2023/04/05 10:44:10;;;;;;;6.83;5.03;;;9.70;81.40;;;;;;4983547;28;20073;-86
2023/04/05 10:46:39;;;;;;;7.87;5.30;;;9.90;81.30;;;;;;5009690;28;20128;-85
2023/04/05 10:49:41;;;;;;;7.00;5.90;;;9.90;81.30;;;;;;4996176;28;20132;-87
2023/04/05 10:52:08;;;;;;;5.75;5.05;;;10.00;72.50;;;;;;5015872;28;20044;-86
2023/04/05 10:54:35;;;;;;;7.73;5.33;;;10.00;73.50;;;;;;5001511;28;20048;-87
2023/04/05 10:57:05;;;;;;;9.13;6.17;;;10.20;73.60;;;;;;4984381;28;20570;-88
2023/04/05 10:59:32;;;;;;;6.30;5.27;;;10.20;74.00;;;;;;5002433;28;20041;-86
2023/04/05 11:01:59;;;;;;;6.97;5.70;;;10.30;73.60;;;;;;5010941;28;20044;-86
2023/04/05 11:04:25;;;;;;;8.13;5.80;;;10.40;74.60;;;;;;4991825;28;20125;-87
2023/04/05 11:07:18;;;;;;;8.63;5.90;;;10.50;73.10;;;;;;5004260;28;20125;-87
2023/04/05 11:09:56;;;;;;;9.33;5.60;;;10.30;71.70;;;;;;4999191;28;20045;-86
2023/04/05 11:12:51;;;;;;;9.03;5.47;;;10.40;72.90;;;;;;5001039;28;20047;-87
2023/04/05 11:15:32;;;;;;;7.40;5.70;;;10.40;72.30;;;;;;5001129;28;20049;-87
2023/04/05 11:18:11;;;;;;;6.90;5.30;;;10.10;71.70;;;;;;4992128;28;20056;-85
2023/04/05 11:20:50;;;;;;;6.63;5.20;;;10.00;72.60;;;;;;5013594;28;20065;-87
2023/04/05 11:23:20;;;;;;;7.53;5.30;;;10.00;72.40;;;;;;5003258;28;20766;-87
2023/04/05 11:25:50;;;;;;;8.63;5.43;;;10.00;72.20;;;;;;4997369;28;20386;-86
2023/04/05 11:28:23;;;;;;;8.60;5.37;;;9.80;72.40;;;;;;4993831;28;20057;-87
2023/04/05 11:30:51;;;;;;;6.83;5.20;;;9.80;72.00;;;;;;4989993;28;20049;-87
2023/04/05 11:33:45;;;;;;;9.40;5.20;;;9.90;72.30;;;;;;5004761;28;20052;-87
2023/04/05 11:36:11;;;;;;;7.30;5.37;;;10.00;69.20;;;;;;5006675;28;20132;-87
2023/04/05 11:38:39;;;;;;;7.87;5.47;;;10.00;70.30;;;;;;5002082;28;20438;-87
2023/04/05 11:41:16;;;;;;;6.80;4.93;;;10.10;69.60;;;;;;4985356;28;20735;-87
2023/04/05 11:43:46;;;;;;;7.23;5.03;;;10.30;70.30;;;;;;4989053;28;20063;-87
2023/04/05 11:46:15;;;;;;;6.40;5.50;;;10.40;69.10;;;;;;5005252;28;20048;-87
2023/04/05 11:48:41;;;;;;;7.33;5.33;;;10.40;67.80;;;;;;4984722;28;20053;-87
2023/04/05 11:51:09;;;;;;;7.53;5.20;;;10.40;68.30;;;;;;4989864;28;20064;-86
2023/04/05 11:53:36;;;;;;;8.40;5.23;;;10.60;68.30;;;;;;5004726;28;20417;-87
2023/04/05 11:56:14;;;;;;;8.70;5.20;;;10.60;67.40;;;;;;4987917;28;20760;-85
2023/04/05 11:58:41;;;;;;;7.40;5.40;;;10.80;68.70;;;;;;4971979;28;21594;-86
2023/04/05 12:01:07;;;;;;;7.00;5.50;;;11.00;69.20;;;;;;5003628;28;20397;-85
2023/04/05 12:03:37;;;;;;;8.70;5.57;;;11.10;68.10;;;;;;5000267;28;20045;-86
2023/04/05 12:06:04;;;;;;;8.57;5.50;;;11.20;68.90;;;;;;5000665;28;20163;-86
2023/04/05 12:08:52;;;;;;;7.43;5.37;;;11.20;68.50;;;;;;4972232;28;20120;-87
2023/04/05 12:11:29;;;;;;;6.47;5.00;;;11.20;64.50;;;;;;5001936;28;20034;-87
2023/04/05 12:13:57;;;;;;;6.83;5.33;;;11.00;64.60;;;;;;5002500;28;20419;-87
2023/04/05 12:16:24;;;;;;;6.60;5.40;;;10.90;66.20;;;;;;4988055;28;20099;-87
2023/04/05 12:18:58;;;;;;;7.47;5.20;;;11.00;66.40;;;;;;5001611;28;20367;-86
2023/04/05 12:21:25;;;;;;;9.33;5.90;;;11.00;67.10;;;;;;4986139;28;20037;-86
2023/04/05 12:23:51;;;;;;;7.63;5.40;;;11.10;67.30;;;;;;4988981;28;20567;-86
2023/04/05 12:26:18;;;;;;;7.57;5.30;;;11.30;67.00;;;;;;4988612;28;20048;-86
2023/04/05 12:28:58;;;;;;;7.23;5.37;;;11.30;66.10;;;;;;5000670;28;20034;-87
2023/04/05 12:31:43;;;;;;;8.40;5.63;;;11.40;64.40;;;;;;5005489;28;20559;-87
2023/04/05 12:34:11;;;;;;;7.10;5.40;;;11.40;64.30;;;;;;5000723;28;20052;-86
2023/04/05 12:36:37;;;;;;;6.73;5.30;;;11.40;64.80;;;;;;4987248;28;20747;-87
2023/04/05 12:39:09;;;;;;;7.10;5.17;;;11.30;64.50;;;;;;5004419;28;20400;-86
2023/04/05 12:41:35;;;;;;;8.43;5.70;;;11.20;64.30;;;;;;5002062;28;20049;-86
2023/04/05 12:44:29;;;;;;;6.23;5.30;;;11.20;65.30;;;;;;5002167;28;20485;-86
2023/04/05 12:47:03;;;;;;;7.33;5.20;;;11.20;63.00;;;;;;4994229;28;20128;-86
2023/04/05 12:49:36;;;;;;;8.23;5.10;;;11.10;63.70;;;;;;4989166;28;20523;-87
2023/04/05 12:52:01;;;;;;;9.70;5.33;;;11.20;63.70;;;;;;4988038;28;20054;-87